WBKL

Labuan Airport

Labuan, Malaysia
TAF WBKL 251700Z 2518/2618 VRB03KT 9999 FEW012
Issued Valid From Valid To
Apr-25 @ 17:00 UTC
(an hour ago)
Apr-25 @ 18:00 UTC
(16 minutes ago)
Apr-26 @ 18:00 UTC
(in 24 hours)
Apr-25 @ 18:00 to Apr-26 @ 18:00
TAF WBKL 251700Z 2518/2618 VRB03KT 9999 FEW012
Wind Visibility Clouds
Variable at 3 knots 10,000+ meters
  • Few at 1,200' AGL
TAF WBKL 251700Z 2518/2618 VRB03KT 9999 FEW012
Issued Apr-25 @ 17:00 UTC
(an hour ago)
Valid From Apr-25 @ 18:00 UTC
(16 minutes ago)
Valid To Apr-26 @ 18:00 UTC
(in 24 hours)
Apr-25 @ 18:00 - Apr-26 @ 18:00
Wind Visibility
Variable at 3 knots 10,000+ meters
Clouds
  • Few at 1,200' AGL